Time;durP1;ratioP1;P1;durP2;ratioP2;P2;SDS_P1;SDS_P2;PMS_P1;PMS_P2;Temp;Humidity;BMP_temperature;BMP_pressure;BME280_temperature;BME280_humidity;BME280_pressure;Samples;Min_cycle;Max_cycle;Signal;HPM_P1;HPM_P2
2022/05/30 00:00:31;;;;;;;9.47;8.03;;;;;;;20.41;86.73;100822.66;2072185;28;20455;-65
2022/05/30 00:01:32;;;;;;;9.57;7.50;;;;;;;20.48;86.77;100828.63;2070647;28;20196;-65
2022/05/30 00:02:33;;;;;;;9.57;6.83;;;;;;;20.50;86.79;100831.72;2071815;28;20260;-65
2022/05/30 00:03:34;;;;;;;11.00;7.67;;;;;;;20.34;86.62;100820.25;2071114;28;20294;-65
2022/05/30 00:04:36;;;;;;;12.37;7.70;;;;;;;20.09;86.96;100768.31;2063902;28;20425;-65
2022/05/30 00:05:42;;;;;;;13.37;7.97;;;;;;;20.36;86.89;100812.13;2063932;28;20475;-65
2022/05/30 00:06:42;;;;;;;9.90;7.23;;;;;;;20.08;86.86;100769.59;2072695;28;20484;-65
2022/05/30 00:07:43;;;;;;;9.13;7.07;;;;;;;20.46;86.88;100836.78;2072379;28;20436;-65
2022/05/30 00:08:43;;;;;;;9.47;7.10;;;;;;;20.47;86.94;100829.13;2072747;28;20189;-65
2022/05/30 00:09:48;;;;;;;7.77;6.90;;;;;;;20.44;87.11;100839.34;2072582;28;20216;-65
2022/05/30 00:10:48;;;;;;;8.37;6.30;;;;;;;20.42;86.93;100832.66;2072023;28;20590;-65
2022/05/30 00:11:50;;;;;;;7.00;5.97;;;;;;;20.42;87.08;100832.66;2071653;28;20408;-65
2022/05/30 00:12:51;;;;;;;7.40;6.40;;;;;;;20.39;86.79;100825.19;2071939;28;20262;-65
2022/05/30 00:13:51;;;;;;;6.80;5.57;;;;;;;20.37;87.03;100825.66;2071228;28;20427;-65
2022/05/30 00:14:52;;;;;;;7.50;6.27;;;;;;;20.38;87.21;100835.69;2071852;28;20423;-65
2022/05/30 00:15:52;;;;;;;6.60;5.90;;;;;;;20.03;87.14;100794.81;2072513;28;20181;-65
2022/05/30 00:16:53;;;;;;;7.13;5.37;;;;;;;20.33;87.33;100836.41;2072564;28;20260;-65
2022/05/30 00:17:55;;;;;;;8.37;5.70;;;;;;;20.34;87.35;100834.34;2072328;28;20182;-65
2022/05/30 00:18:57;;;;;;;7.10;6.10;;;;;;;20.32;87.40;100834.81;2072774;28;20188;-65
2022/05/30 00:19:57;;;;;;;6.33;5.57;;;;;;;20.33;87.71;100836.41;2072233;28;20894;-65
2022/05/30 00:20:58;;;;;;;6.87;5.50;;;;;;;20.30;87.47;100828.94;2071539;28;20442;-65
2022/05/30 00:21:58;;;;;;;6.33;5.17;;;;;;;20.33;87.67;100827.94;2072252;28;20191;-65
2022/05/30 00:22:59;;;;;;;7.67;5.03;;;;;;;20.34;87.55;100831.53;2072752;28;20695;-65
2022/05/30 00:23:59;;;;;;;7.50;4.77;;;;;;;20.33;87.68;100832.78;2070833;28;20719;-65
2022/05/30 00:25:00;;;;;;;8.50;5.20;;;;;;;20.32;87.83;100832.00;2071985;28;20178;-65
2022/05/30 00:26:00;;;;;;;5.63;5.03;;;;;;;20.36;87.55;100831.81;2072245;28;20240;-65
2022/05/30 00:27:01;;;;;;;8.37;5.20;;;;;;;19.83;87.46;100752.63;2072695;28;20182;-65
2022/05/30 00:28:01;;;;;;;6.30;4.73;;;;;;;20.36;87.59;100832.56;2072328;28;20570;-65
2022/05/30 00:29:03;;;;;;;6.97;4.63;;;;;;;20.38;87.78;100818.00;2072624;28;20734;-65
2022/05/30 00:30:05;;;;;;;6.83;4.90;;;;;;;19.71;87.44;100725.63;2072388;28;20649;-65
2022/05/30 00:31:11;;;;;;;7.60;4.90;;;;;;;20.38;87.49;100820.84;2071317;28;20427;-65
2022/05/30 00:32:11;;;;;;;8.37;5.00;;;;;;;20.06;87.44;100768.50;2063439;28;21068;-65
2022/05/30 00:33:13;;;;;;;6.23;4.90;;;;;;;20.38;87.56;100813.16;2063836;28;20962;-65
2022/05/30 00:34:13;;;;;;;6.77;5.27;;;;;;;20.13;87.59;100768.09;2071459;28;20188;-65
2022/05/30 00:35:14;;;;;;;9.43;5.30;;;;;;;19.96;87.81;100748.16;2072440;28;20425;-65
2022/05/30 00:36:15;;;;;;;6.77;4.87;;;;;;;20.08;87.77;100749.91;2071364;28;20192;-65
2022/05/30 00:37:15;;;;;;;7.67;4.80;;;;;;;20.43;87.75;100809.66;2063745;28;20179;-65
2022/05/30 00:38:16;;;;;;;6.67;5.03;;;;;;;20.11;87.96;100762.97;2063609;28;20665;-65
2022/05/30 00:39:16;;;;;;;9.10;5.10;;;;;;;20.39;87.88;100816.75;2072459;28;20261;-65
2022/05/30 00:40:17;;;;;;;6.60;4.90;;;;;;;20.39;88.02;100814.72;2071957;28;20187;-65
2022/05/30 00:41:18;;;;;;;6.43;5.10;;;;;;;20.18;88.23;100776.63;2071500;28;20237;-65
2022/05/30 00:42:21;;;;;;;9.20;4.93;;;;;;;20.46;88.33;100813.50;2072478;28;20201;-65
2022/05/30 00:43:28;;;;;;;6.97;4.90;;;;;;;20.42;88.44;100812.94;2071507;28;20185;-65
2022/05/30 00:44:29;;;;;;;6.40;4.63;;;;;;;20.12;88.38;100763.75;2072357;28;20408;-65
2022/05/30 00:45:29;;;;;;;6.00;5.40;;;;;;;20.33;88.30;100794.19;2071728;28;20416;-65
2022/05/30 00:46:30;;;;;;;6.53;5.03;;;;;;;20.20;88.75;100784.53;2071996;28;20216;-65
2022/05/30 00:47:31;;;;;;;8.90;5.07;;;;;;;20.42;88.49;100813.69;2071799;28;20252;-65
2022/05/30 00:48:43;;;;;;;5.60;5.10;;;;;;;19.82;88.67;100751.84;2072613;28;20718;-65
2022/05/30 00:49:45;;;;;;;5.47;4.77;;;;;;;20.19;89.07;100819.56;2072247;28;20177;-65
2022/05/30 00:50:49;;;;;;;5.73;5.23;;;;;;;20.21;89.05;100812.19;2071839;28;20458;-65
2022/05/30 00:51:55;;;;;;;5.67;4.70;;;;;;;20.23;89.32;100820.13;2071431;28;20431;-65
2022/05/30 00:52:56;;;;;;;6.67;4.83;;;;;;;19.93;89.56;100771.69;2072532;28;20464;-65
2022/05/30 00:53:58;;;;;;;7.47;4.90;;;;;;;19.87;89.64;100764.44;2071713;28;20413;-65
2022/05/30 00:55:06;;;;;;;5.80;5.03;;;;;;;20.24;89.80;100819.66;2072507;28;20511;-65
2022/05/30 00:56:11;;;;;;;6.47;4.63;;;;;;;20.24;90.01;100821.69;2071722;28;20463;-65
2022/05/30 00:57:21;;;;;;;5.30;4.80;;;;;;;20.25;89.71;100815.56;2071957;28;20480;-65
2022/05/30 00:58:23;;;;;;;7.50;4.37;;;;;;;20.11;89.98;100801.59;2072062;28;20412;-65
2022/05/30 00:59:23;;;;;;;6.50;4.20;;;;;;;20.29;89.92;100816.13;2072141;28;20427;-65
2022/05/30 01:00:25;;;;;;;6.67;4.43;;;;;;;20.27;89.86;100821.47;2071921;28;20515;-65
2022/05/30 01:01:26;;;;;;;8.50;4.70;;;;;;;20.30;90.07;100814.06;2071655;28;20608;-65
2022/05/30 01:02:30;;;;;;;5.60;4.40;;;;;;;20.26;90.14;100824.78;2072419;28;20411;-65
2022/05/30 01:07:30;;;;;;;6.40;4.07;;;;;;;19.82;90.64;100759.50;2072282;28;20429;-65
2022/05/30 01:08:32;;;;;;;4.67;4.27;;;;;;;20.18;90.61;100816.00;2071437;28;20419;-65
2022/05/30 01:09:40;;;;;;;11.00;4.57;;;;;;;20.16;90.42;100815.72;2072366;28;20810;-65
2022/05/30 01:10:41;;;;;;;7.47;4.60;;;;;;;20.12;90.61;100809.50;2071844;28;20467;-65
2022/05/30 01:11:47;;;;;;;6.73;4.80;;;;;;;20.15;90.46;100814.16;2071359;28;20515;-65
2022/05/30 01:12:52;;;;;;;5.80;4.20;;;;;;;20.19;90.00;100814.72;2072202;28;20238;-65
2022/05/30 01:13:53;;;;;;;5.73;4.87;;;;;;;20.05;90.27;100790.22;2071468;28;20401;-65
2022/05/30 01:14:53;;;;;;;7.83;4.73;;;;;;;20.16;90.57;100810.06;2072581;28;20427;-65
2022/05/30 01:15:54;;;;;;;6.83;4.57;;;;;;;20.13;90.69;100807.50;2079723;28;20816;-65
2022/05/30 01:16:56;;;;;;;5.33;4.83;;;;;;;20.21;90.63;100817.06;2079139;28;20181;-65
2022/05/30 01:18:00;;;;;;;6.17;4.97;;;;;;;20.24;90.66;100814.03;2071951;28;20413;-65
2022/05/30 01:19:01;;;;;;;5.00;4.37;;;;;;;19.88;90.66;100772.38;2079585;28;20434;-65
2022/05/30 01:20:14;;;;;;;6.30;4.93;;;;;;;20.25;90.86;100818.38;2079027;28;20419;-65
2022/05/30 01:21:47;;;;;;;9.60;5.50;;;;;;;20.21;90.65;100817.06;2066695;28;20261;-65
2022/05/30 01:23:06;;;;;;;5.63;4.80;;;;;;;20.17;90.79;100820.06;2072334;28;20407;-65
2022/05/30 01:24:13;;;;;;;7.70;4.70;;;;;;;20.17;90.69;100824.94;2062890;28;20421;-65
2022/05/30 01:25:20;;;;;;;5.40;4.90;;;;;;;20.20;90.80;100824.72;2064618;28;20411;-65
2022/05/30 01:26:44;;;;;;;5.53;4.93;;;;;;;20.20;90.58;100821.91;2063498;28;20441;-65
2022/05/30 01:27:50;;;;;;;8.07;5.10;;;;;;;20.22;90.72;100815.78;2066059;28;20428;-65
2022/05/30 01:29:11;;;;;;;6.63;5.13;;;;;;;20.08;90.73;100803.34;2072391;28;20925;-65
2022/05/30 01:30:14;;;;;;;9.93;5.33;;;;;;;19.87;90.66;100773.66;2070850;28;20414;-65
2022/05/30 01:31:16;;;;;;;5.47;4.97;;;;;;;19.83;90.89;100763.88;2071457;28;20428;-65
2022/05/30 01:32:18;;;;;;;7.00;5.70;;;;;;;20.26;90.91;100824.78;2072051;28;20432;-65
2022/05/30 01:33:18;;;;;;;5.47;4.97;;;;;;;20.26;90.91;100821.97;2071664;28;20945;-65
2022/05/30 01:34:24;;;;;;;9.83;5.47;;;;;;;20.27;90.73;100815.84;2072478;28;20851;-65
2022/05/30 01:35:26;;;;;;;7.70;5.57;;;;;;;20.27;90.60;100815.06;2072097;28;20189;-65
2022/05/30 01:36:29;;;;;;;6.67;5.47;;;;;;;20.25;90.84;100824.00;2073663;28;20431;-65
2022/05/30 01:37:29;;;;;;;6.13;5.50;;;;;;;20.16;90.78;100810.06;2073573;28;20956;-65
2022/05/30 01:38:30;;;;;;;7.20;5.50;;;;;;;19.61;91.02;100736.25;2072864;28;20922;-65
2022/05/30 01:39:30;;;;;;;5.67;5.17;;;;;;;20.28;91.04;100817.41;2073437;28;20187;-65
2022/05/30 01:40:31;;;;;;;7.67;5.90;;;;;;;20.02;91.43;100794.03;2072956;28;20258;-65
2022/05/30 01:41:32;;;;;;;5.87;5.37;;;;;;;20.29;91.38;100820.97;2072334;28;20179;-65
2022/05/30 01:42:32;;;;;;;7.63;5.37;;;;;;;20.34;91.34;100826.69;2073741;28;20425;-65
2022/05/30 01:43:34;;;;;;;8.57;5.70;;;;;;;20.11;91.75;100793.91;2073077;28;20284;-65
2022/05/30 01:44:34;;;;;;;5.97;5.37;;;;;;;20.40;91.45;100830.31;2064704;28;20189;-65
2022/05/30 01:45:34;;;;;;;7.50;5.73;;;;;;;20.44;91.36;100839.34;2064837;28;20428;-65
2022/05/30 01:46:35;;;;;;;7.47;5.27;;;;;;;20.42;91.34;100836.22;2073527;28;20204;-65
2022/05/30 01:47:36;;;;;;;6.43;5.00;;;;;;;19.93;91.28;100762.47;2064650;28;20237;-65
2022/05/30 01:48:37;;;;;;;7.27;5.47;;;;;;;20.44;91.17;100835.72;2064573;28;20179;-65
2022/05/30 01:49:37;;;;;;;6.93;5.33;;;;;;;19.93;90.80;100777.31;2073218;28;20180;-65
2022/05/30 01:50:38;;;;;;;5.57;5.07;;;;;;;20.42;91.02;100841.84;2072922;28;20420;-65
2022/05/30 01:51:39;;;;;;;9.17;5.60;;;;;;;20.40;91.03;100835.97;2072034;28;20262;-65
2022/05/30 01:52:39;;;;;;;7.63;5.70;;;;;;;19.88;91.08;100765.97;2073425;28;20594;-65
2022/05/30 01:53:40;;;;;;;9.20;5.50;;;;;;;20.42;90.74;100835.47;2072891;28;20192;-65
2022/05/30 01:54:41;;;;;;;6.00;5.43;;;;;;;20.40;90.83;100835.97;2073665;28;20653;-65
2022/05/30 01:55:41;;;;;;;6.40;5.33;;;;;;;20.42;90.72;100833.41;2073506;28;20184;-65
2022/05/30 01:56:42;;;;;;;7.27;5.30;;;;;;;20.45;90.56;100832.44;2073701;28;20177;-65
2022/05/30 01:57:42;;;;;;;7.30;5.53;;;;;;;20.47;90.41;100831.94;2073541;28;20239;-65
2022/05/30 01:58:43;;;;;;;6.93;5.57;;;;;;;20.43;90.49;100842.63;2073642;28;20258;-65
2022/05/30 01:59:43;;;;;;;7.80;5.40;;;;;;;19.84;90.43;100749.31;2072577;28;20184;-65
2022/05/30 02:00:44;;;;;;;6.73;4.80;;;;;;;20.01;90.03;100789.66;2072891;28;20185;-65
2022/05/30 02:01:45;;;;;;;8.43;5.17;;;;;;;20.34;90.33;100835.13;2072409;28;20247;-65
2022/05/30 02:02:46;;;;;;;6.10;5.17;;;;;;;20.31;90.50;100838.91;2072551;28;20185;-65
2022/05/30 02:03:48;;;;;;;7.73;5.50;;;;;;;20.33;90.51;100839.22;2072929;28;20419;-65
2022/05/30 02:04:50;;;;;;;7.50;5.00;;;;;;;20.34;90.75;100851.22;2073641;28;20259;-65
2022/05/30 02:05:51;;;;;;;6.70;4.77;;;;;;;20.25;90.43;100829.63;2073378;28;20416;-65
2022/05/30 02:06:51;;;;;;;6.63;4.80;;;;;;;20.36;90.63;100845.91;2073682;28;20417;-65
2022/05/30 02:07:51;;;;;;;6.50;4.37;;;;;;;19.99;90.22;100783.75;2073136;28;20178;-65
2022/05/30 02:08:53;;;;;;;6.93;4.30;;;;;;;20.22;89.79;100824.97;2073566;28;20259;-65
2022/05/30 02:09:53;;;;;;;9.03;4.70;;;;;;;20.39;89.82;100847.69;2063848;28;20687;-65
2022/05/30 02:10:54;;;;;;;5.13;4.20;;;;;;;20.40;89.82;100849.25;2064200;28;20413;-65
2022/05/30 02:11:55;;;;;;;5.93;4.20;;;;;;;20.37;89.81;100845.38;2072743;28;20183;-65
2022/05/30 02:12:56;;;;;;;6.80;4.63;;;;;;;20.41;89.88;100850.81;2073185;28;20258;-65
2022/05/30 02:13:56;;;;;;;7.57;4.83;;;;;;;20.46;89.53;100850.09;2072155;28;20428;-65
2022/05/30 02:14:57;;;;;;;8.07;4.80;;;;;;;20.49;89.37;100849.09;2073253;28;20211;-65
2022/05/30 02:17:16;;;;;;;5.70;4.27;;;;;;;20.10;89.04;100811.28;2067246;28;20184;-65
2022/05/30 02:18:16;;;;;;;5.27;3.87;;;;;;;20.34;88.74;100851.22;2073287;28;20416;-65
2022/05/30 02:19:17;;;;;;;4.50;3.90;;;;;;;20.20;88.79;100830.34;2073426;28;20638;-65
2022/05/30 02:20:18;;;;;;;6.53;3.80;;;;;;;20.32;88.76;100854.53;2072116;28;20228;-65
2022/05/30 02:21:19;;;;;;;8.10;4.17;;;;;;;20.17;88.72;100828.50;2072159;28;20515;-65
2022/05/30 02:22:23;;;;;;;5.90;4.40;;;;;;;20.17;88.57;100845.38;2073445;28;20169;-65
2022/05/30 02:23:23;;;;;;;5.67;4.10;;;;;;;19.96;88.72;100800.84;2072769;28;20184;-65
2022/05/30 02:24:24;;;;;;;4.53;3.90;;;;;;;19.87;88.71;100786.94;2072443;28;20436;-65
2022/05/30 02:25:25;;;;;;;8.03;4.17;;;;;;;20.30;88.29;100856.28;2073112;28;20181;-65
2022/05/30 02:26:26;;;;;;;6.40;4.27;;;;;;;19.86;88.78;100794.59;2073644;28;20417;-65
2022/05/30 02:27:26;;;;;;;7.93;4.73;;;;;;;20.37;88.92;100855.88;2073219;28;20177;-65
2022/05/30 02:28:27;;;;;;;8.17;4.00;;;;;;;20.39;89.17;100856.16;2073459;28;20421;-65
2022/05/30 02:29:28;;;;;;;5.93;4.50;;;;;;;19.73;89.09;100760.44;2073151;28;20178;-65
2022/05/30 02:30:28;;;;;;;5.63;4.20;;;;;;;20.41;89.19;100859.25;2072727;28;20217;-65
2022/05/30 02:31:29;;;;;;;7.53;4.90;;;;;;;20.41;89.41;100865.66;2071504;28;20186;-65
2022/05/30 02:32:30;;;;;;;6.37;4.77;;;;;;;20.43;89.53;100857.50;2073216;28;20208;-65
2022/05/30 02:37:28;;;;;;;5.53;4.80;;;;;;;20.10;90.47;100857.06;2073122;28;20396;-65
2022/05/30 02:38:28;;;;;;;6.33;5.07;;;;;;;20.17;90.74;100867.91;2073196;28;20421;-65
2022/05/30 02:39:30;;;;;;;5.57;4.63;;;;;;;19.51;90.73;100773.41;2073011;28;20174;-65
2022/05/30 02:40:30;;;;;;;6.63;5.13;;;;;;;19.71;91.26;100798.72;2064000;28;20677;-65
2022/05/30 02:41:31;;;;;;;5.67;5.07;;;;;;;20.18;91.80;100868.69;2063301;28;20810;-65
2022/05/30 02:42:31;;;;;;;7.80;5.30;;;;;;;20.18;91.88;100877.13;2072879;28;20220;-65
2022/05/30 02:43:31;;;;;;;6.33;5.23;;;;;;;20.21;92.19;100876.16;2072577;28;20184;-65
2022/05/30 02:44:32;;;;;;;10.37;5.67;;;;;;;20.15;92.45;100862.00;2073049;28;20209;-65
2022/05/30 02:45:32;;;;;;;6.37;4.73;;;;;;;19.80;92.48;100821.09;2072804;28;20188;-65
2022/05/30 02:46:34;;;;;;;9.93;5.60;;;;;;;20.18;92.74;100877.13;2072470;28;20178;-65
2022/05/30 02:47:34;;;;;;;9.17;5.40;;;;;;;20.19;92.92;100873.03;2073072;28;20272;-65
2022/05/30 02:48:35;;;;;;;10.53;5.40;;;;;;;20.26;93.03;100867.75;2073302;28;20424;-65
2022/05/30 02:49:36;;;;;;;9.43;4.83;;;;;;;20.24;92.67;100877.97;2064451;28;21005;-65
2022/05/30 02:50:36;;;;;;;10.50;5.03;;;;;;;20.20;92.43;100874.59;2063846;28;20790;-65
2022/05/30 02:51:37;;;;;;;7.20;4.93;;;;;;;19.63;92.30;100789.94;2072112;28;20561;-65
2022/05/30 02:52:37;;;;;;;6.30;5.40;;;;;;;19.81;92.29;100817.03;2072433;28;20197;-65
2022/05/30 02:53:38;;;;;;;7.60;4.80;;;;;;;20.17;92.33;100869.94;2072507;28;20182;-65
2022/05/30 02:54:39;;;;;;;8.60;4.80;;;;;;;20.19;92.82;100873.81;2073147;28;20189;-65
2022/05/30 02:55:40;;;;;;;7.93;4.50;;;;;;;20.23;92.66;100877.22;2073040;28;20176;-65
2022/05/30 02:56:41;;;;;;;7.07;4.90;;;;;;;20.29;92.93;100877.25;2072436;28;20412;-65
2022/05/30 02:57:42;;;;;;;6.97;4.80;;;;;;;19.89;92.85;100815.31;2072839;28;20189;-65
2022/05/30 02:58:43;;;;;;;8.60;4.97;;;;;;;19.87;92.92;100810.22;2073120;28;20455;-65
2022/05/30 02:59:43;;;;;;;6.53;5.37;;;;;;;19.70;93.13;100785.94;2072947;28;20177;-65
2022/05/30 03:00:44;;;;;;;8.23;5.13;;;;;;;20.27;93.11;100896.69;2072493;28;20417;-65
2022/05/30 03:01:45;;;;;;;7.07;4.40;;;;;;;20.25;92.78;100879.50;2072149;28;20177;-65
2022/05/30 03:02:45;;;;;;;6.43;3.93;;;;;;;19.54;92.18;100773.19;2072787;28;20161;-65
2022/05/30 03:03:46;;;;;;;5.67;4.37;;;;;;;20.26;92.39;100883.88;2072031;28;20462;-65
2022/05/30 03:04:46;;;;;;;6.90;4.60;;;;;;;20.24;92.64;100863.91;2073016;28;20254;-65
2022/05/30 03:05:47;;;;;;;6.17;3.87;;;;;;;19.79;92.33;100811.09;2072952;28;20180;-65
2022/05/30 03:06:48;;;;;;;9.10;3.43;;;;;;;20.30;92.40;100876.78;2073191;28;20612;-65
2022/05/30 03:07:48;;;;;;;4.80;3.13;;;;;;;20.33;91.53;100880.66;2071764;28;20180;-65
2022/05/30 03:08:49;;;;;;;4.63;3.60;;;;;;;19.82;90.92;100802.47;2073124;28;20186;-65
2022/05/30 03:09:49;;;;;;;4.10;3.67;;;;;;;20.43;90.64;100877.19;2073001;28;20182;-65
2022/05/30 03:10:50;;;;;;;5.57;3.73;;;;;;;20.13;90.10;100824.38;2072653;28;20558;-65
2022/05/30 03:11:50;;;;;;;5.70;3.40;;;;;;;20.47;90.33;100883.38;2072006;28;20220;-65
2022/05/30 03:12:51;;;;;;;4.50;3.50;;;;;;;20.53;90.26;100883.44;2072876;28;20253;-65
2022/05/30 03:13:52;;;;;;;5.23;3.57;;;;;;;20.34;90.33;100880.16;2071638;28;20188;-65
2022/05/30 03:14:53;;;;;;;6.07;3.50;;;;;;;20.27;90.37;100880.56;2073052;28;20170;-65
2022/05/30 03:15:53;;;;;;;5.37;3.53;;;;;;;20.30;90.27;100882.41;2072882;28;20419;-65
2022/05/30 03:16:54;;;;;;;4.13;3.33;;;;;;;20.28;90.41;100881.34;2073156;28;20350;-65
2022/05/30 03:17:54;;;;;;;4.77;3.50;;;;;;;19.90;90.58;100826.09;2072549;28;20173;-65
2022/05/30 03:18:55;;;;;;;5.73;3.43;;;;;;;20.30;90.67;100885.22;2063260;28;20181;-65
2022/05/30 03:19:56;;;;;;;3.97;3.50;;;;;;;20.37;90.60;100886.84;2062689;28;20190;-65
2022/05/30 03:20:57;;;;;;;7.13;4.20;;;;;;;20.05;90.60;100849.31;2062544;28;20676;-65
2022/05/30 03:21:57;;;;;;;6.33;3.50;;;;;;;19.97;90.61;100830.53;2063606;28;20344;-65
2022/05/30 03:22:58;;;;;;;5.17;3.60;;;;;;;20.31;90.47;100883.19;2073035;28;20514;-65
2022/05/30 03:23:59;;;;;;;6.97;3.50;;;;;;;20.41;90.00;100890.22;2072105;28;20533;-65
2022/05/30 03:24:59;;;;;;;4.33;3.57;;;;;;;20.18;90.22;100891.97;2072430;28;20189;-65
2022/05/30 03:26:00;;;;;;;4.10;3.27;;;;;;;20.15;90.53;100884.50;2072816;28;20325;-65
2022/05/30 03:27:00;;;;;;;4.83;3.40;;;;;;;19.62;90.71;100830.56;2072846;28;20184;-65
2022/05/30 03:28:01;;;;;;;4.67;3.40;;;;;;;20.10;90.39;100902.09;2063947;28;20263;-65
2022/05/30 03:29:02;;;;;;;7.77;3.57;;;;;;;20.05;90.32;100891.50;2063746;28;20178;-65
2022/05/30 03:30:03;;;;;;;7.17;3.27;;;;;;;20.38;89.89;100896.81;2072112;28;20655;-65
2022/05/30 03:31:07;;;;;;;7.43;3.40;;;;;;;20.49;89.24;100889.31;2071666;28;20174;-65
2022/05/30 03:32:09;;;;;;;4.33;3.27;;;;;;;20.48;88.39;100872.91;2072563;28;20416;-65
2022/05/30 03:33:10;;;;;;;5.27;3.43;;;;;;;20.64;87.60;100897.66;2072805;28;20425;-65
2022/05/30 03:34:10;;;;;;;4.63;3.67;;;;;;;20.68;86.33;100895.41;2063421;28;20422;-65
2022/05/30 03:35:12;;;;;;;4.97;3.23;;;;;;;20.60;85.89;100897.88;2063508;28;20485;-65
2022/05/30 03:36:26;;;;;;;8.87;3.50;;;;;;;20.61;85.78;100893.00;2072678;28;20188;-65
2022/05/30 03:37:27;;;;;;;6.17;3.40;;;;;;;20.70;85.40;100901.28;2072610;28;20400;-65
2022/05/30 03:38:27;;;;;;;4.77;3.20;;;;;;;20.44;84.89;100872.31;2071362;28;20455;-65
2022/05/30 03:39:28;;;;;;;5.53;3.43;;;;;;;20.66;84.33;100892.28;2064337;28;20423;-65
2022/05/30 03:40:29;;;;;;;8.37;3.40;;;;;;;20.79;84.38;100892.69;2063257;28;20176;-65
2022/05/30 03:41:29;;;;;;;5.80;3.37;;;;;;;20.14;84.15;100812.63;2063645;28;20179;-65
2022/05/30 03:42:30;;;;;;;5.83;3.50;;;;;;;20.12;84.29;100805.94;2064863;28;20180;-65
2022/05/30 03:43:30;;;;;;;5.07;3.27;;;;;;;20.65;84.11;100890.75;2064056;28;20178;-65
2022/05/30 03:44:31;;;;;;;5.00;3.70;;;;;;;20.82;84.06;100903.75;2055946;28;20270;-65
2022/05/30 03:45:31;;;;;;;5.13;3.17;;;;;;;20.54;83.56;100856.84;2055550;28;20254;-65
2022/05/30 03:46:32;;;;;;;5.87;3.67;;;;;;;20.78;83.12;100903.19;2064284;28;20181;-65
2022/05/30 03:47:44;;;;;;;3.60;3.17;;;;;;;20.83;83.14;100891.19;2064335;28;20178;-65
2022/05/30 03:48:45;;;;;;;6.10;3.57;;;;;;;20.68;83.33;100879.25;2064736;28;20413;-65
2022/05/30 03:49:45;;;;;;;4.30;3.10;;;;;;;19.96;83.17;100781.16;2064518;28;20456;-65
2022/05/30 03:50:48;;;;;;;4.73;3.67;;;;;;;20.38;82.77;100858.22;2063568;28;20619;-65
2022/05/30 03:51:50;;;;;;;5.87;3.80;;;;;;;20.56;82.85;100896.53;2063457;28;20221;-65
2022/05/30 03:52:51;;;;;;;5.43;3.63;;;;;;;20.10;83.11;100859.88;2055770;28;20472;-65
2022/05/30 03:53:52;;;;;;;7.80;3.70;;;;;;;20.48;82.93;100903.88;2055373;28;20418;-65
2022/05/30 03:54:53;;;;;;;6.33;3.97;;;;;;;20.07;83.49;100832.72;2064614;28;20413;-65
2022/05/30 03:55:54;;;;;;;5.17;4.20;;;;;;;20.53;83.57;100903.91;2055819;28;20438;-65
2022/05/30 03:56:54;;;;;;;8.30;3.43;;;;;;;20.20;83.46;100844.41;2055197;28;20683;-65
2022/05/30 03:57:55;;;;;;;5.50;3.70;;;;;;;20.56;83.15;100902.16;2064480;28;20183;-65
2022/05/30 03:58:55;;;;;;;6.30;3.90;;;;;;;20.17;83.35;100847.44;2064221;28;20183;-65
2022/05/30 03:59:56;;;;;;;7.00;3.90;;;;;;;20.50;83.64;100902.09;2064212;28;20221;-66
2022/05/30 04:00:56;;;;;;;6.23;3.90;;;;;;;20.55;83.68;100903.41;2063625;28;20241;-65
2022/05/30 04:01:57;;;;;;;7.10;4.00;;;;;;;20.53;83.77;100903.91;2062323;28;20178;-65
2022/05/30 04:02:58;;;;;;;8.70;3.90;;;;;;;20.62;83.79;100906.59;2064592;28;20267;-65
2022/05/30 04:03:58;;;;;;;4.50;4.00;;;;;;;20.25;83.74;100848.56;2068374;28;20190;-65
2022/05/30 04:04:59;;;;;;;7.63;4.20;;;;;;;20.64;83.77;100901.25;2063956;28;20413;-65
2022/05/30 04:06:00;;;;;;;6.37;4.60;;;;;;;20.70;83.40;100890.03;2063737;28;20682;-65
2022/05/30 04:07:00;;;;;;;7.97;4.03;;;;;;;20.69;83.95;100899.75;2071934;28;20558;-65
2022/05/30 04:08:01;;;;;;;6.63;4.23;;;;;;;20.76;83.98;100917.00;2072347;28;20185;-65
2022/05/30 04:09:02;;;;;;;6.17;4.33;;;;;;;20.77;83.80;100923.41;2063856;28;20181;-65
2022/05/30 04:10:03;;;;;;;7.50;4.97;;;;;;;20.68;84.38;100923.56;2071834;28;20212;-65
2022/05/30 04:11:04;;;;;;;6.77;4.57;;;;;;;20.78;84.48;100927.78;2078594;28;20184;-65
2022/05/30 04:12:05;;;;;;;7.03;5.07;;;;;;;20.86;84.63;100928.88;2071516;28;20507;-65
2022/05/30 04:13:09;;;;;;;7.07;5.50;;;;;;;20.56;85.17;100900.13;2063542;28;20265;-65
2022/05/30 04:14:09;;;;;;;8.17;4.93;;;;;;;20.60;84.94;100892.25;2063517;28;20540;-65
2022/05/30 04:15:16;;;;;;;7.33;4.90;;;;;;;20.90;85.18;100935.09;2072593;28;20416;-66
2022/05/30 04:16:17;;;;;;;7.47;5.00;;;;;;;20.69;84.84;100911.00;2072543;28;20548;-65
2022/05/30 04:17:18;;;;;;;10.30;5.73;;;;;;;20.86;84.62;100926.06;2071855;28;20444;-65
2022/05/30 04:18:18;;;;;;;9.97;5.63;;;;;;;20.55;84.91;100906.25;2072326;28;20184;-65
2022/05/30 04:19:19;;;;;;;7.17;5.63;;;;;;;20.71;84.54;100908.47;2072504;28;20673;-65
2022/05/30 04:20:19;;;;;;;6.87;5.40;;;;;;;20.89;84.49;100939.16;2071843;28;20346;-65
2022/05/30 04:21:20;;;;;;;9.80;6.43;;;;;;;20.28;84.57;100858.84;2071505;28;20178;-65
2022/05/30 04:22:20;;;;;;;8.33;5.80;;;;;;;20.22;84.83;100829.84;2072539;28;20626;-65
2022/05/30 04:23:21;;;;;;;7.87;6.10;;;;;;;20.92;85.27;100947.41;2078516;28;20203;-65
2022/05/30 04:24:21;;;;;;;7.43;6.27;;;;;;;20.88;85.04;100934.78;2080158;28;20169;-65
2022/05/30 04:25:22;;;;;;;9.83;6.47;;;;;;;20.54;84.72;100885.78;2072510;28;20181;-66
2022/05/30 04:26:22;;;;;;;8.57;6.63;;;;;;;20.89;84.61;100936.34;2072675;28;20177;-65
2022/05/30 04:27:23;;;;;;;8.83;7.23;;;;;;;20.70;85.02;100937.91;2072508;28;20647;-65
2022/05/30 04:28:25;;;;;;;9.10;6.70;;;;;;;20.59;85.52;100934.97;2072152;28;20178;-65
2022/05/30 04:29:25;;;;;;;9.97;7.80;;;;;;;20.50;85.63;100933.06;2072275;28;20181;-65
2022/05/30 04:30:25;;;;;;;11.13;8.03;;;;;;;20.51;86.25;100939.47;2079315;28;20442;-65
2022/05/30 04:31:26;;;;;;;11.63;7.97;;;;;;;20.44;86.83;100937.06;2078931;28;20555;-66
2022/05/30 04:32:26;;;;;;;10.03;8.33;;;;;;;20.37;86.89;100940.31;2063638;28;20245;-65
2022/05/30 04:33:27;;;;;;;11.17;8.77;;;;;;;20.58;87.62;100948.25;2062394;28;20207;-65
2022/05/30 04:34:28;;;;;;;14.03;9.43;;;;;;;20.26;87.45;100883.88;2071991;28;20177;-66
2022/05/30 04:35:28;;;;;;;12.70;9.40;;;;;;;20.73;87.80;100942.56;2072119;28;20186;-66
2022/05/30 04:36:29;;;;;;;9.63;8.73;;;;;;;20.80;87.77;100934.47;2072453;28;20238;-65
2022/05/30 04:37:31;;;;;;;9.60;8.60;;;;;;;20.75;87.03;100937.97;2072027;28;20188;-65
2022/05/30 04:38:32;;;;;;;13.43;8.47;;;;;;;20.96;86.78;100950.78;2071819;28;20436;-65
2022/05/30 04:39:33;;;;;;;11.50;8.17;;;;;;;21.00;86.44;100968.25;2063228;28;20873;-65
2022/05/30 04:40:33;;;;;;;11.83;8.57;;;;;;;21.05;85.71;100942.19;2062863;28;20428;-65
2022/05/30 04:41:33;;;;;;;12.47;8.97;;;;;;;20.95;85.64;100917.47;2071455;28;20179;-65
2022/05/30 04:42:34;;;;;;;11.67;8.60;;;;;;;20.96;85.75;100917.00;2072238;28;20263;-65
2022/05/30 04:43:34;;;;;;;10.10;8.47;;;;;;;20.85;85.32;100888.69;2070466;28;20189;-65
2022/05/30 04:44:35;;;;;;;11.20;8.40;;;;;;;21.15;84.92;100931.50;2069876;28;20179;-65
2022/05/30 04:45:35;;;;;;;8.23;7.43;;;;;;;20.91;84.73;100897.97;2057969;28;20294;-65
2022/05/30 04:46:36;;;;;;;9.43;7.27;;;;;;;21.39;83.69;100955.31;2058990;28;20554;-65
2022/05/30 04:47:39;;;;;;;11.23;8.60;;;;;;;21.33;83.59;100968.59;2054059;28;20180;-65
2022/05/30 04:48:40;;;;;;;9.10;8.20;;;;;;;21.28;83.36;100943.94;2054590;28;20192;-65
2022/05/30 04:49:41;;;;;;;13.53;7.33;;;;;;;21.38;83.21;100953.00;2063775;28;20850;-65
2022/05/30 04:50:41;;;;;;;8.60;7.73;;;;;;;21.47;82.89;100962.06;2062300;28;20429;-65
2022/05/30 04:51:42;;;;;;;10.90;9.77;;;;;;;21.49;83.00;100965.16;2056190;28;20380;-65
2022/05/30 04:52:44;;;;;;;9.90;8.60;;;;;;;21.53;82.88;100971.34;2055368;28;20202;-65
2022/05/30 04:53:44;;;;;;;11.93;10.73;;;;;;;20.85;82.55;100854.88;2067473;28;20187;-65
2022/05/30 04:54:45;;;;;;;13.70;10.23;;;;;;;20.64;82.59;100808.31;2055160;28;20985;-65
2022/05/30 04:55:46;;;;;;;11.43;8.03;;;;;;;21.56;82.36;100959.09;2059027;28;20252;-65